createdAt,value
2023-04-06T00:01:09.920Z,38.53
2023-04-06T00:03:37.370Z,38.40
2023-04-06T00:06:05.042Z,38.27
2023-04-06T00:08:32.216Z,38.16
2023-04-06T00:10:59.434Z,38.20
2023-04-06T00:13:26.887Z,38.08
2023-04-06T00:15:54.071Z,38.07
2023-04-06T00:18:21.477Z,38.15
2023-04-06T00:20:48.742Z,37.79
2023-04-06T00:23:16.361Z,37.79
2023-04-06T00:25:43.523Z,37.86
2023-04-06T00:28:10.762Z,37.80
2023-04-06T00:30:37.995Z,37.49
2023-04-06T00:33:05.528Z,37.49
2023-04-06T00:35:32.746Z,37.37
2023-04-06T00:37:59.927Z,37.45
2023-04-06T00:40:29.339Z,37.25
2023-04-06T00:42:56.955Z,37.17
2023-04-06T00:45:24.160Z,37.25
2023-04-06T00:47:51.396Z,37.36
2023-04-06T00:50:18.986Z,37.21
2023-04-06T00:52:46.229Z,37.25
2023-04-06T00:55:13.426Z,37.15
2023-04-06T00:57:40.637Z,37.10
2023-04-06T01:00:08.408Z,37.08
2023-04-06T01:02:35.778Z,37.25
2023-04-06T01:05:03.766Z,37.05
2023-04-06T01:07:31.183Z,37.31
2023-04-06T01:09:58.604Z,37.09
2023-04-06T01:12:26.477Z,37.36
2023-04-06T01:14:53.839Z,37.28
2023-04-06T01:17:21.009Z,37.12
2023-04-06T01:19:50.281Z,37.07
2023-04-06T01:22:18.043Z,37.14
2023-04-06T01:24:45.739Z,37.10
2023-04-06T01:27:13.371Z,37.14
2023-04-06T01:29:44.025Z,37.12
2023-04-06T01:32:11.267Z,36.99
2023-04-06T01:34:38.624Z,37.04
2023-04-06T01:37:05.784Z,37.05
2023-04-06T01:39:32.972Z,37.07
2023-04-06T01:42:00.172Z,37.15
2023-04-06T01:44:27.923Z,36.99
2023-04-06T01:46:55.252Z,37.12
2023-04-06T01:49:22.438Z,37.14
2023-04-06T01:51:49.593Z,37.13
2023-04-06T01:54:16.812Z,36.71
2023-04-06T01:56:44.152Z,36.97
2023-04-06T01:59:11.609Z,36.84
2023-04-06T02:01:39.036Z,37.05
2023-04-06T02:04:06.331Z,36.98
2023-04-06T02:06:33.484Z,36.98
2023-04-06T02:09:00.764Z,37.04
2023-04-06T02:11:27.928Z,36.90
2023-04-06T02:13:56.624Z,36.79
2023-04-06T02:16:23.947Z,36.99
2023-04-06T02:18:51.886Z,36.85
2023-04-06T02:21:21.139Z,36.72
2023-04-06T02:23:48.733Z,36.75
2023-04-06T02:26:16.485Z,36.83
2023-04-06T02:28:43.706Z,36.90
2023-04-06T02:31:12.001Z,36.67
2023-04-06T02:33:39.230Z,36.88
2023-04-06T02:36:06.505Z,37.01
2023-04-06T02:38:33.749Z,36.92
2023-04-06T02:41:01.160Z,36.89
2023-04-06T02:43:28.371Z,36.78
2023-04-06T02:45:55.874Z,36.73
2023-04-06T02:48:23.087Z,36.92
2023-04-06T02:50:50.295Z,36.77
2023-04-06T02:53:17.478Z,36.92
2023-04-06T02:55:44.675Z,36.63
2023-04-06T02:58:11.891Z,36.62
2023-04-06T03:00:39.385Z,36.84
2023-04-06T03:03:06.778Z,36.73
2023-04-06T03:05:34.131Z,36.70
2023-04-06T03:08:01.312Z,36.68
2023-04-06T03:10:28.464Z,36.87
2023-04-06T03:12:55.683Z,36.76
2023-04-06T03:15:22.914Z,36.96
2023-04-06T03:17:50.250Z,36.68
2023-04-06T03:20:17.456Z,36.92
2023-04-06T03:22:44.648Z,36.74
2023-04-06T03:25:11.824Z,36.76
2023-04-06T03:27:39.015Z,36.72
2023-04-06T03:30:07.247Z,36.64
2023-04-06T03:32:34.473Z,36.86
2023-04-06T03:35:01.769Z,36.61
2023-04-06T03:37:28.957Z,36.58
2023-04-06T03:39:56.159Z,36.64
2023-04-06T03:42:23.419Z,36.51
2023-04-06T03:44:50.597Z,36.79
2023-04-06T03:47:17.790Z,36.79
2023-04-06T03:49:47.962Z,36.74
2023-04-06T03:52:15.212Z,36.85
2023-04-06T03:54:42.377Z,36.74
2023-04-06T03:57:09.549Z,36.64
2023-04-06T03:59:36.834Z,36.68
2023-04-06T04:02:06.816Z,36.86
2023-04-06T04:04:34.075Z,36.85
2023-04-06T04:07:01.285Z,36.66
2023-04-06T04:09:29.778Z,36.60
2023-04-06T04:11:57.316Z,36.80
2023-04-06T04:14:27.465Z,36.66
2023-04-06T04:16:54.738Z,36.46
2023-04-06T04:19:22.027Z,36.55
2023-04-06T04:21:49.233Z,36.69
2023-04-06T04:24:18.963Z,36.51
2023-04-06T04:26:46.270Z,36.57
2023-04-06T04:29:13.597Z,36.69
2023-04-06T04:31:40.906Z,36.68
2023-04-06T04:34:08.104Z,36.37
2023-04-06T04:36:35.321Z,36.44
2023-04-06T04:39:02.541Z,36.49
2023-04-06T04:41:29.862Z,36.44
2023-04-06T04:43:57.120Z,36.17
2023-04-06T04:46:24.325Z,36.27
2023-04-06T04:48:51.506Z,36.40
2023-04-06T04:51:18.728Z,36.17
2023-04-06T04:53:46.142Z,36.39
2023-04-06T04:56:13.397Z,36.14
2023-04-06T04:58:40.649Z,35.84
2023-04-06T05:01:07.923Z,36.09
2023-04-06T05:03:35.397Z,35.89
2023-04-06T05:06:02.812Z,35.96
2023-04-06T05:08:30.134Z,36.08
2023-04-06T05:10:57.369Z,36.13
2023-04-06T05:13:24.592Z,35.97
2023-04-06T05:15:51.877Z,35.76
2023-04-06T05:18:19.153Z,35.93
2023-04-06T05:20:46.656Z,35.90
2023-04-06T05:23:13.981Z,35.75
2023-04-06T05:25:41.762Z,35.70
2023-04-06T05:28:08.945Z,35.91
2023-04-06T05:30:36.776Z,35.91
2023-04-06T05:33:04.267Z,35.60
2023-04-06T05:35:31.706Z,35.56
2023-04-06T05:37:58.946Z,35.75
2023-04-06T05:40:26.181Z,35.78
2023-04-06T05:42:53.380Z,35.62
2023-04-06T05:45:21.631Z,35.62
2023-04-06T05:47:48.847Z,35.67
2023-04-06T05:50:16.870Z,35.66
2023-04-06T05:52:46.199Z,35.43
2023-04-06T05:55:13.707Z,35.47
2023-04-06T05:57:40.914Z,35.52
2023-04-06T06:00:10.709Z,35.54
2023-04-06T06:02:38.055Z,35.60
2023-04-06T06:05:05.557Z,35.54
2023-04-06T06:07:33.060Z,35.60
2023-04-06T06:10:00.690Z,35.66
2023-04-06T06:12:27.955Z,35.65
2023-04-06T06:14:56.442Z,35.47
2023-04-06T06:17:23.755Z,35.67
2023-04-06T06:19:51.133Z,35.49
2023-04-06T06:22:18.331Z,35.49
2023-04-06T06:24:45.923Z,35.58
2023-04-06T06:27:13.177Z,35.46
2023-04-06T06:29:40.425Z,35.35
2023-04-06T06:32:09.876Z,35.39
2023-04-06T06:34:37.346Z,35.59
2023-04-06T06:37:04.579Z,35.39
2023-04-06T06:39:31.754Z,35.47
2023-04-06T06:42:01.528Z,35.21
2023-04-06T06:44:29.160Z,35.31
2023-04-06T06:46:56.640Z,35.50
2023-04-06T06:49:23.912Z,36.64
2023-04-06T06:51:51.660Z,37.56
2023-04-06T06:54:19.102Z,37.40
2023-04-06T06:56:46.353Z,37.06
2023-04-06T06:59:13.795Z,36.80
2023-04-06T07:01:43.996Z,36.77
2023-04-06T07:04:11.399Z,36.28
2023-04-06T07:06:38.947Z,36.15
2023-04-06T07:09:06.292Z,35.95
2023-04-06T07:11:33.919Z,35.73
2023-04-06T07:14:01.204Z,35.62
2023-04-06T07:16:29.040Z,35.48
2023-04-06T07:18:56.704Z,35.72
2023-04-06T07:21:23.901Z,35.72
2023-04-06T07:23:51.774Z,35.61
2023-04-06T07:26:19.257Z,35.74
2023-04-06T07:28:46.438Z,35.87
2023-04-06T07:31:13.702Z,35.45
2023-04-06T07:33:41.020Z,35.93
2023-04-06T07:36:08.464Z,35.85
2023-04-06T07:38:35.758Z,35.39
2023-04-06T07:41:04.962Z,35.53
2023-04-06T07:43:32.526Z,35.51
2023-04-06T07:46:01.701Z,35.87
2023-04-06T07:48:28.951Z,35.51
2023-04-06T07:51:03.217Z,35.35
2023-04-06T07:53:31.414Z,35.49
2023-04-06T07:56:00.106Z,35.49
2023-04-06T07:58:27.445Z,35.49
2023-04-06T08:00:56.345Z,35.92
2023-04-06T08:03:26.714Z,35.06
2023-04-06T08:05:57.291Z,35.37
2023-04-06T08:08:24.614Z,35.37
2023-04-06T08:10:52.092Z,35.53
2023-04-06T08:13:19.279Z,35.63
2023-04-06T08:15:46.606Z,35.70
2023-04-06T08:18:13.821Z,35.80
2023-04-06T08:20:41.353Z,36.02
2023-04-06T08:23:10.282Z,36.30
2023-04-06T08:25:37.556Z,36.52
2023-04-06T08:28:05.735Z,36.45
2023-04-06T08:30:33.269Z,36.67
2023-04-06T08:33:00.522Z,36.47
2023-04-06T08:35:28.312Z,36.52
2023-04-06T08:37:57.061Z,36.59
2023-04-06T08:40:24.578Z,36.71
2023-04-06T08:42:55.703Z,36.66
2023-04-06T08:45:23.299Z,36.76
2023-04-06T08:47:53.175Z,36.58
2023-04-06T08:50:20.960Z,36.64
2023-04-06T08:52:51.363Z,36.58
2023-04-06T08:55:18.652Z,36.72
2023-04-06T08:57:47.426Z,36.72
2023-04-06T09:00:15.666Z,36.55
2023-04-06T09:02:45.031Z,36.68
2023-04-06T09:05:12.538Z,36.54
2023-04-06T09:07:39.857Z,36.69
2023-04-06T09:10:07.753Z,36.55
2023-04-06T09:12:35.753Z,36.71
2023-04-06T09:15:03.549Z,36.72
2023-04-06T09:17:33.771Z,36.76
2023-04-06T09:20:03.080Z,36.69
2023-04-06T09:22:40.234Z,36.65
2023-04-06T09:25:09.520Z,36.69
2023-04-06T09:27:38.236Z,36.59
2023-04-06T09:30:16.834Z,36.70
2023-04-06T09:32:49.321Z,36.65
2023-04-06T09:35:16.673Z,36.70
2023-04-06T09:37:44.558Z,36.66
2023-04-06T09:40:12.348Z,36.57
2023-04-06T09:42:41.478Z,36.65
2023-04-06T09:45:09.190Z,36.69
2023-04-06T09:47:41.210Z,36.76
2023-04-06T09:50:09.716Z,36.84
2023-04-06T09:52:50.500Z,36.81
2023-04-06T09:55:38.162Z,36.98
2023-04-06T09:58:10.803Z,37.00
2023-04-06T10:00:45.832Z,37.13
2023-04-06T10:03:27.721Z,37.01
2023-04-06T10:06:01.149Z,36.93
2023-04-06T10:08:32.508Z,37.07
2023-04-06T10:11:01.737Z,37.10
2023-04-06T10:13:29.143Z,37.03
2023-04-06T10:15:57.990Z,36.88
2023-04-06T10:18:25.310Z,37.01
2023-04-06T10:20:56.254Z,37.03
2023-04-06T10:23:37.747Z,36.95
2023-04-06T10:26:05.514Z,37.17
2023-04-06T10:28:37.366Z,37.16
2023-04-06T10:31:07.949Z,37.24
2023-04-06T10:33:35.636Z,37.34
2023-04-06T10:36:16.562Z,37.38
2023-04-06T10:38:44.047Z,37.52
2023-04-06T10:41:13.033Z,37.40
2023-04-06T10:43:41.536Z,37.59
2023-04-06T10:46:09.930Z,37.58
2023-04-06T10:48:44.865Z,37.80
2023-04-06T10:51:14.215Z,37.79
2023-04-06T10:53:49.922Z,37.57
2023-04-06T10:56:18.870Z,37.48
2023-04-06T10:58:50.613Z,37.42
2023-04-06T11:01:19.089Z,37.24
2023-04-06T11:03:50.880Z,37.43
2023-04-06T11:06:27.732Z,37.42
2023-04-06T11:08:55.784Z,37.36
2023-04-06T11:11:24.560Z,37.16
2023-04-06T11:13:56.728Z,37.57
2023-04-06T11:16:26.203Z,37.16
2023-04-06T11:19:02.947Z,37.44
2023-04-06T11:21:46.529Z,37.12
2023-04-06T11:24:13.743Z,37.50
2023-04-06T11:26:43.030Z,37.42
2023-04-06T11:29:10.420Z,37.46
2023-04-06T11:31:55.064Z,37.57
2023-04-06T11:34:23.898Z,37.57
2023-04-06T11:36:57.674Z,37.55
2023-04-06T11:39:26.598Z,37.46
2023-04-06T11:42:05.554Z,37.32
2023-04-06T11:44:36.300Z,37.26
2023-04-06T11:47:08.160Z,37.24
2023-04-06T11:49:37.926Z,37.17
2023-04-06T11:52:25.264Z,37.14
2023-04-06T11:54:53.810Z,37.13
2023-04-06T11:57:25.462Z,37.29
2023-04-06T11:59:53.015Z,37.34
2023-04-06T12:02:20.440Z,37.29
2023-04-06T12:04:47.807Z,37.42
2023-04-06T12:07:15.046Z,37.20
2023-04-06T12:09:43.742Z,37.29
2023-04-06T12:12:11.045Z,37.36
2023-04-06T12:14:38.359Z,37.19
2023-04-06T12:17:05.852Z,37.22
2023-04-06T12:19:33.320Z,37.54
2023-04-06T12:22:00.795Z,37.34
2023-04-06T12:24:29.693Z,37.23
2023-04-06T12:27:08.653Z,37.21
2023-04-06T12:29:39.737Z,37.19
2023-04-06T12:32:07.233Z,37.34
2023-04-06T12:34:34.505Z,37.22
2023-04-06T12:37:01.844Z,37.44
2023-04-06T12:39:29.538Z,37.43
2023-04-06T12:41:57.353Z,37.41
2023-04-06T12:44:25.580Z,37.52
2023-04-06T12:46:54.273Z,37.52
2023-04-06T12:49:22.988Z,37.52
2023-04-06T12:51:51.257Z,37.47
2023-04-06T12:54:18.572Z,37.47
2023-04-06T12:56:45.974Z,37.37
2023-04-06T12:59:13.237Z,37.52
2023-04-06T13:01:40.528Z,37.55
2023-04-06T13:04:07.688Z,37.51
2023-04-06T13:06:34.970Z,37.68
2023-04-06T13:09:02.382Z,37.55
2023-04-06T13:11:30.898Z,37.59
2023-04-06T13:13:58.127Z,37.65
2023-04-06T13:16:25.339Z,37.72
2023-04-06T13:18:52.601Z,37.67
2023-04-06T13:21:21.699Z,37.55
2023-04-06T13:23:48.990Z,37.64
2023-04-06T13:26:17.619Z,37.81
2023-04-06T13:28:45.149Z,37.89
2023-04-06T13:31:12.553Z,37.71
2023-04-06T13:33:41.722Z,37.73
2023-04-06T13:36:09.476Z,37.68
2023-04-06T13:38:43.010Z,37.81
2023-04-06T13:41:10.656Z,37.71
2023-04-06T13:43:37.878Z,37.75
2023-04-06T13:46:05.538Z,37.71
2023-04-06T13:48:32.847Z,37.57
2023-04-06T13:51:12.567Z,37.46
2023-04-06T13:53:41.601Z,37.77
2023-04-06T13:56:09.439Z,37.88
2023-04-06T13:58:37.218Z,37.76
2023-04-06T14:01:08.918Z,37.86
2023-04-06T14:03:36.854Z,37.83
2023-04-06T14:06:31.119Z,37.87
2023-04-06T14:08:58.950Z,37.58
2023-04-06T14:11:26.117Z,37.64
2023-04-06T14:13:53.566Z,37.64
2023-04-06T14:16:24.196Z,37.71
2023-04-06T14:18:52.175Z,37.82
2023-04-06T14:21:19.857Z,37.76
2023-04-06T14:23:47.587Z,37.83
2023-04-06T14:26:14.957Z,37.77
2023-04-06T14:28:42.345Z,37.73
2023-04-06T14:31:14.205Z,37.69
2023-04-06T14:33:41.873Z,37.58
2023-04-06T14:36:09.605Z,37.71
2023-04-06T14:38:37.319Z,37.66
2023-04-06T14:41:04.660Z,37.75
2023-04-06T14:43:32.175Z,37.73
2023-04-06T14:46:03.263Z,37.88
2023-04-06T14:48:30.673Z,37.64
2023-04-06T14:50:58.324Z,37.47
2023-04-06T14:53:25.968Z,37.51
2023-04-06T14:55:53.700Z,37.47
2023-04-06T14:58:21.532Z,37.39
2023-04-06T15:00:49.330Z,37.32
2023-04-06T15:03:17.168Z,37.46
2023-04-06T15:05:46.841Z,37.27
2023-04-06T15:08:16.177Z,37.15
2023-04-06T15:10:43.931Z,37.27
2023-04-06T15:13:11.176Z,37.11
2023-04-06T15:15:38.868Z,37.21
2023-04-06T15:18:06.501Z,37.28
2023-04-06T15:20:35.174Z,37.26
2023-04-06T15:23:05.580Z,37.37
2023-04-06T15:25:32.897Z,37.08
2023-04-06T15:28:01.281Z,37.70
2023-04-06T15:30:29.032Z,37.42
2023-04-06T15:33:06.743Z,37.40
2023-04-06T15:35:42.753Z,37.46
2023-04-06T15:38:10.738Z,37.50
2023-04-06T15:40:48.538Z,37.57
2023-04-06T15:43:19.235Z,37.44
2023-04-06T15:45:47.151Z,37.73
2023-04-06T15:48:14.333Z,37.65
2023-04-06T15:50:41.757Z,37.58
2023-04-06T15:53:09.015Z,37.68
2023-04-06T15:55:36.257Z,37.81
2023-04-06T15:58:03.436Z,37.57
2023-04-06T16:00:31.171Z,37.69
2023-04-06T16:02:58.469Z,37.68
2023-04-06T16:05:28.323Z,37.62
2023-04-06T16:07:56.806Z,37.53
2023-04-06T16:10:24.097Z,37.71
2023-04-06T16:12:52.294Z,37.63
2023-04-06T16:15:19.569Z,37.73
2023-04-06T16:17:46.916Z,37.78
2023-04-06T16:20:15.759Z,37.48
2023-04-06T16:22:43.317Z,37.75
2023-04-06T16:25:11.823Z,37.53
2023-04-06T16:27:39.006Z,37.65
2023-04-06T16:30:07.470Z,37.84
2023-04-06T16:32:35.002Z,37.87
2023-04-06T16:35:03.711Z,37.75
2023-04-06T16:37:31.436Z,37.56
2023-04-06T16:39:59.698Z,37.89
2023-04-06T16:42:27.676Z,37.76
2023-04-06T16:44:54.961Z,37.71
2023-04-06T16:47:23.951Z,37.74
2023-04-06T16:49:55.032Z,37.73
2023-04-06T16:52:33.935Z,37.85
2023-04-06T16:55:01.615Z,37.90
2023-04-06T16:57:31.852Z,37.68
2023-04-06T16:59:59.156Z,37.62
2023-04-06T17:02:26.613Z,37.77
2023-04-06T17:04:54.015Z,37.76
2023-04-06T17:07:25.515Z,37.81
2023-04-06T17:09:52.823Z,37.89
2023-04-06T17:12:20.012Z,37.84
2023-04-06T17:14:47.448Z,37.84
2023-04-06T17:17:14.902Z,37.79
2023-04-06T17:19:42.138Z,37.71
2023-04-06T17:22:09.358Z,37.85
2023-04-06T17:24:36.558Z,38.01
2023-04-06T17:27:03.806Z,37.72
2023-04-06T17:29:31.029Z,37.75
2023-04-06T17:31:58.198Z,37.74
2023-04-06T17:34:25.762Z,38.00
2023-04-06T17:36:52.975Z,38.06
2023-04-06T17:39:20.512Z,37.98
2023-04-06T17:41:47.808Z,38.00
2023-04-06T17:44:15.007Z,37.72
2023-04-06T17:46:42.479Z,37.23
2023-04-06T17:49:09.686Z,37.28
2023-04-06T17:51:39.735Z,37.36
2023-04-06T17:54:07.225Z,37.49
2023-04-06T17:56:34.441Z,37.76
2023-04-06T17:59:02.681Z,37.79
2023-04-06T18:01:31.584Z,37.64
2023-04-06T18:03:58.929Z,37.70
2023-04-06T18:06:26.296Z,37.80
2023-04-06T18:08:53.934Z,37.69
2023-04-06T18:11:25.820Z,37.76
2023-04-06T18:13:53.533Z,37.85
2023-04-06T18:16:21.272Z,37.87
2023-04-06T18:18:51.692Z,37.93
2023-04-06T18:21:18.980Z,37.89
2023-04-06T18:23:46.687Z,38.02
2023-04-06T18:26:18.392Z,38.17
2023-04-06T18:28:46.566Z,38.19
2023-04-06T18:31:14.245Z,38.18
2023-04-06T18:33:41.474Z,38.08
2023-04-06T18:36:09.826Z,37.85
2023-04-06T18:38:39.264Z,37.50
2023-04-06T18:41:06.945Z,37.42
2023-04-06T18:43:34.747Z,37.22
2023-04-06T18:46:01.924Z,37.30
2023-04-06T18:48:29.180Z,37.24
2023-04-06T18:51:01.679Z,37.12
2023-04-06T18:53:29.007Z,37.26
2023-04-06T18:55:59.537Z,37.42
2023-04-06T18:58:27.199Z,37.46
2023-04-06T19:00:54.794Z,37.40
2023-04-06T19:03:22.436Z,37.28
2023-04-06T19:05:50.139Z,37.20
2023-04-06T19:08:17.648Z,36.76
2023-04-06T19:10:45.290Z,35.81
2023-04-06T19:13:12.604Z,36.05
2023-04-06T19:15:42.753Z,36.13
2023-04-06T19:18:10.473Z,36.04
2023-04-06T19:20:37.661Z,33.04
2023-04-06T19:23:04.893Z,34.54
2023-04-06T19:25:32.107Z,35.00
2023-04-06T19:27:59.354Z,34.17
2023-04-06T19:30:27.008Z,34.28
2023-04-06T19:32:55.010Z,34.14
2023-04-06T19:35:22.586Z,33.74
2023-04-06T19:37:49.987Z,33.64
2023-04-06T19:40:17.511Z,33.62
2023-04-06T19:42:44.990Z,33.69
2023-04-06T19:45:12.429Z,33.55
2023-04-06T19:47:40.071Z,33.42
2023-04-06T19:50:10.280Z,33.37
2023-04-06T19:52:38.712Z,33.41
2023-04-06T19:55:06.376Z,34.10
2023-04-06T19:57:33.680Z,33.38
2023-04-06T20:00:01.277Z,33.35
2023-04-06T20:02:28.769Z,33.27
2023-04-06T20:04:56.207Z,34.26
2023-04-06T20:07:23.408Z,34.36
2023-04-06T20:09:50.778Z,34.60
2023-04-06T20:12:17.970Z,34.49
2023-04-06T20:14:45.328Z,33.53
2023-04-06T20:17:12.496Z,33.30
2023-04-06T20:19:39.897Z,33.56
2023-04-06T20:22:07.389Z,33.81
2023-04-06T20:24:34.544Z,33.66
2023-04-06T20:27:01.804Z,33.51
2023-04-06T20:29:29.047Z,33.05
2023-04-06T20:31:56.460Z,32.71
2023-04-06T20:34:25.990Z,32.76
2023-04-06T20:36:53.780Z,33.09
2023-04-06T20:39:21.124Z,32.59
2023-04-06T20:41:48.568Z,33.17
2023-04-06T20:44:16.517Z,33.32
2023-04-06T20:46:45.698Z,31.62
2023-04-06T20:49:13.525Z,32.93
2023-04-06T20:51:44.081Z,32.88
2023-04-06T20:54:11.286Z,32.60
2023-04-06T20:56:38.489Z,32.80
2023-04-06T20:59:05.912Z,32.77
2023-04-06T21:01:33.365Z,32.81
2023-04-06T21:04:02.573Z,32.56
2023-04-06T21:06:32.253Z,32.77
2023-04-06T21:09:00.421Z,32.88
2023-04-06T21:11:27.607Z,32.75
2023-04-06T21:13:54.811Z,32.94
2023-04-06T21:16:22.160Z,32.83
2023-04-06T21:18:49.410Z,33.48
2023-04-06T21:21:16.657Z,33.60
2023-04-06T21:23:43.890Z,33.87
2023-04-06T21:26:13.038Z,33.57
2023-04-06T21:28:40.238Z,33.39
2023-04-06T21:31:10.782Z,33.73
2023-04-06T21:33:38.063Z,33.16
2023-04-06T21:36:06.565Z,33.87
2023-04-06T21:38:35.185Z,34.02
2023-04-06T21:41:02.619Z,34.09
2023-04-06T21:43:30.004Z,34.42
2023-04-06T21:45:59.957Z,34.41
2023-04-06T21:48:27.173Z,34.53
2023-04-06T21:50:54.842Z,34.54
2023-04-06T21:53:22.340Z,34.35
2023-04-06T21:55:49.822Z,35.01
2023-04-06T21:58:17.359Z,35.34
2023-04-06T22:00:44.677Z,35.42
2023-04-06T22:03:12.118Z,35.43
2023-04-06T22:05:39.607Z,35.52
2023-04-06T22:10:34.555Z,35.88
2023-04-06T22:13:01.883Z,36.13
2023-04-06T22:15:29.058Z,36.15
2023-04-06T22:17:56.426Z,36.02
2023-04-06T22:20:23.792Z,36.08
2023-04-06T22:22:51.041Z,36.32
2023-04-06T22:25:18.252Z,36.61
2023-04-06T22:27:45.637Z,36.41
2023-04-06T22:30:13.087Z,36.64
2023-04-06T22:32:40.359Z,36.63
2023-04-06T22:35:08.138Z,37.10
2023-04-06T22:37:35.365Z,37.45
2023-04-06T22:40:02.631Z,37.77
2023-04-06T22:42:29.791Z,38.04
2023-04-06T22:44:56.995Z,38.47
2023-04-06T22:47:24.273Z,39.00
2023-04-06T22:49:51.465Z,39.57
2023-04-06T22:52:18.751Z,37.19
2023-04-06T22:54:46.163Z,35.96
2023-04-06T22:57:13.402Z,34.54
2023-04-06T22:59:40.570Z,33.72
2023-04-06T23:02:07.996Z,33.63
2023-04-06T23:04:35.772Z,33.85
2023-04-06T23:07:03.526Z,34.03
2023-04-06T23:09:31.058Z,34.64
2023-04-06T23:11:58.308Z,35.01
2023-04-06T23:14:25.558Z,35.60
2023-04-06T23:16:52.783Z,35.94
2023-04-06T23:19:20.049Z,36.05
2023-04-06T23:21:47.216Z,36.19
2023-04-06T23:24:14.673Z,36.40
2023-04-06T23:26:41.849Z,36.49
2023-04-06T23:29:09.002Z,36.65
2023-04-06T23:31:36.430Z,36.85
2023-04-06T23:34:03.827Z,36.74
2023-04-06T23:36:31.783Z,36.85
2023-04-06T23:38:59.030Z,36.77
2023-04-06T23:41:26.479Z,37.02
2023-04-06T23:43:54.005Z,37.10
2023-04-06T23:46:21.534Z,37.01
2023-04-06T23:48:48.808Z,37.13
2023-04-06T23:51:16.127Z,37.01
2023-04-06T23:53:44.006Z,37.14
2023-04-06T23:56:11.694Z,36.81
2023-04-06T23:58:39.141Z,37.13
